createdAt,value
2022-08-08T00:00:55.783Z,4.60
2022-08-08T00:05:17.275Z,4.48
2022-08-08T00:07:53.176Z,4.80
2022-08-08T00:10:28.124Z,4.25
2022-08-08T00:15:57.448Z,4.51
2022-08-08T00:24:08.322Z,4.33
2022-08-08T00:26:40.622Z,4.31
2022-08-08T00:29:08.519Z,4.49
2022-08-08T00:32:28.888Z,4.44
2022-08-08T00:34:26.842Z,4.80
2022-08-08T00:41:09.246Z,4.59
2022-08-08T00:42:41.787Z,4.90
2022-08-08T00:45:21.822Z,4.91
2022-08-08T00:48:05.083Z,4.76
2022-08-08T00:50:40.854Z,5.08
2022-08-08T00:53:18.113Z,5.18
2022-08-08T00:55:54.149Z,5.02
2022-08-08T00:58:21.538Z,5.26
2022-08-08T01:04:01.854Z,5.27
2022-08-08T01:06:37.545Z,5.16
2022-08-08T01:09:36.032Z,4.93
2022-08-08T01:12:02.202Z,4.65
2022-08-08T01:17:34.943Z,4.91
2022-08-08T01:20:13.206Z,4.61
2022-08-08T01:22:43.229Z,5.10
2022-08-08T01:25:16.929Z,5.17
2022-08-08T01:27:48.345Z,5.16
2022-08-08T01:30:17.250Z,5.01
2022-08-08T01:32:51.957Z,4.94
2022-08-08T01:35:29.686Z,5.23
2022-08-08T01:38:03.904Z,5.22
2022-08-08T01:40:32.977Z,5.20
2022-08-08T01:43:02.871Z,5.39
2022-08-08T01:45:37.666Z,5.07
2022-08-08T01:48:16.120Z,5.14
2022-08-08T01:50:58.526Z,5.47
2022-08-08T01:55:14.952Z,5.13
2022-08-08T01:56:29.337Z,5.10
2022-08-08T01:58:58.607Z,5.12
2022-08-08T02:02:00.559Z,5.51
2022-08-08T02:04:18.566Z,5.29
2022-08-08T02:06:45.391Z,5.47
2022-08-08T02:09:16.267Z,5.58
2022-08-08T02:11:59.651Z,5.28
2022-08-08T02:14:27.846Z,5.37
2022-08-08T02:16:54.746Z,5.37
2022-08-08T02:19:56.915Z,5.72
2022-08-08T02:22:13.336Z,5.79
2022-08-08T02:27:42.457Z,5.70
2022-08-08T02:30:20.615Z,6.03
2022-08-08T02:32:54.201Z,5.76
2022-08-08T02:35:28.295Z,5.73
2022-08-08T02:37:58.125Z,5.80
2022-08-08T02:40:34.062Z,5.97
2022-08-08T02:46:00.708Z,6.12
2022-08-08T02:48:30.934Z,5.90
2022-08-08T02:51:03.767Z,6.08
2022-08-08T02:53:33.558Z,6.20
2022-08-08T02:56:06.317Z,6.27
2022-08-08T03:01:32.705Z,6.25
2022-08-08T03:05:05.254Z,6.10
2022-08-08T03:07:07.127Z,5.80
2022-08-08T03:09:34.470Z,5.85
2022-08-08T03:12:11.341Z,5.84
2022-08-08T03:15:57.395Z,5.71
2022-08-08T03:17:41.161Z,5.85
2022-08-08T03:20:14.030Z,6.18
2022-08-08T03:22:47.230Z,5.80
2022-08-08T03:25:19.210Z,5.76
2022-08-08T03:27:47.439Z,6.20
2022-08-08T03:30:25.199Z,6.03
2022-08-08T03:33:03.729Z,5.87
2022-08-08T03:35:34.972Z,5.67
2022-08-08T03:40:55.221Z,4.76
2022-08-08T03:43:31.486Z,5.28
2022-08-08T03:46:09.497Z,5.58
2022-08-08T03:51:50.740Z,4.95
2022-08-08T03:54:15.724Z,4.96
2022-08-08T03:58:31.085Z,5.08
2022-08-08T04:00:02.453Z,4.85
2022-08-08T04:02:51.605Z,5.00
2022-08-08T04:05:28.923Z,4.95
2022-08-08T04:08:00.593Z,4.82
2022-08-08T04:10:31.674Z,4.73
2022-08-08T04:13:25.306Z,4.92
2022-08-08T04:16:03.818Z,5.02
2022-08-08T04:18:41.883Z,5.09
2022-08-08T04:21:12.235Z,4.96
2022-08-08T04:24:05.703Z,4.90
2022-08-08T04:26:40.041Z,5.45
2022-08-08T04:29:27.657Z,4.91
2022-08-08T04:32:10.580Z,4.91
2022-08-08T04:34:56.097Z,4.92
2022-08-08T04:37:31.746Z,4.95
2022-08-08T04:40:08.199Z,5.31
2022-08-08T04:42:56.441Z,5.47
2022-08-08T04:45:31.226Z,4.97
2022-08-08T04:48:07.023Z,5.06
2022-08-08T04:50:40.311Z,5.03
2022-08-08T04:54:37.442Z,5.29
2022-08-08T04:56:14.258Z,5.02
2022-08-08T04:58:48.485Z,5.08
2022-08-08T05:01:18.145Z,5.11
2022-08-08T05:04:08.427Z,5.46
2022-08-08T05:06:33.322Z,7.93
2022-08-08T05:09:05.986Z,10.21
2022-08-08T05:11:38.606Z,6.11
2022-08-08T05:14:12.285Z,5.71
2022-08-08T05:20:09.692Z,5.76
2022-08-08T05:22:17.286Z,5.72
2022-08-08T05:24:57.489Z,6.13
2022-08-08T05:27:25.617Z,5.37
2022-08-08T05:32:43.228Z,5.35
2022-08-08T05:35:14.756Z,4.78
2022-08-08T05:37:53.202Z,4.99
2022-08-08T05:40:28.103Z,4.68
2022-08-08T05:43:02.198Z,4.76
2022-08-08T05:45:42.859Z,4.41
2022-08-08T05:51:14.772Z,4.10
2022-08-08T05:54:25.241Z,4.55
2022-08-08T05:56:29.665Z,4.27
2022-08-08T05:59:03.805Z,4.27
2022-08-08T06:01:57.396Z,4.58
2022-08-08T06:04:23.698Z,4.86
2022-08-08T06:06:52.432Z,4.74
2022-08-08T06:09:58.813Z,4.53
2022-08-08T06:12:09.410Z,4.57
2022-08-08T06:14:47.749Z,4.72
2022-08-08T06:17:19.296Z,4.85
2022-08-08T06:19:47.002Z,4.81
2022-08-08T06:25:00.359Z,4.86
2022-08-08T06:27:28.376Z,4.90
2022-08-08T06:29:59.844Z,4.77
2022-08-08T06:32:27.582Z,4.55
2022-08-08T06:34:56.435Z,4.82
2022-08-08T06:37:40.074Z,4.87
2022-08-08T06:40:07.307Z,5.06
2022-08-08T06:42:42.837Z,5.41
2022-08-08T06:45:09.384Z,4.91
2022-08-08T06:47:58.654Z,4.74
2022-08-08T06:50:32.270Z,5.32
2022-08-08T06:53:00.223Z,6.03
2022-08-08T06:55:26.809Z,5.25
2022-08-08T06:57:56.325Z,4.77
2022-08-08T07:00:30.210Z,4.82
2022-08-08T07:02:57.726Z,4.74
2022-08-08T07:05:25.031Z,5.34
2022-08-08T07:07:56.738Z,4.77
2022-08-08T07:10:23.684Z,4.98
2022-08-08T07:12:50.518Z,5.13
2022-08-08T07:15:32.800Z,4.44
2022-08-08T07:18:37.028Z,4.71
2022-08-08T07:20:50.855Z,4.71
2022-08-08T07:23:23.355Z,4.32
2022-08-08T07:25:54.192Z,4.36
2022-08-08T07:28:21.821Z,4.85
2022-08-08T07:30:49.542Z,4.61
2022-08-08T07:33:17.528Z,4.32
2022-08-08T07:35:45.384Z,4.37
2022-08-08T07:38:20.302Z,4.24
2022-08-08T07:40:51.335Z,4.03
2022-08-08T07:43:32.326Z,4.23
2022-08-08T07:46:18.013Z,3.98
2022-08-08T07:48:50.153Z,4.07
2022-08-08T07:51:23.700Z,4.12
2022-08-08T07:54:04.532Z,4.11
2022-08-08T07:56:36.729Z,4.18
2022-08-08T07:59:03.800Z,4.44
2022-08-08T08:02:35.952Z,4.31
2022-08-08T08:04:19.571Z,4.71
2022-08-08T08:06:48.077Z,4.47
2022-08-08T08:09:16.020Z,4.40
2022-08-08T08:11:52.811Z,4.88
2022-08-08T08:14:20.469Z,4.69
2022-08-08T08:16:50.852Z,4.64
2022-08-08T08:19:17.533Z,4.85
2022-08-08T08:21:58.472Z,4.47
2022-08-08T08:24:31.936Z,4.72
2022-08-08T08:26:59.169Z,4.44
2022-08-08T08:29:28.394Z,4.26
2022-08-08T08:31:57.415Z,4.22
2022-08-08T08:34:32.438Z,4.34
2022-08-08T08:37:00.394Z,4.36
2022-08-08T08:40:00.314Z,4.48
2022-08-08T08:42:19.252Z,4.25
2022-08-08T08:45:01.269Z,4.31
2022-08-08T08:47:44.000Z,4.23
2022-08-08T08:50:17.297Z,4.11
2022-08-08T08:52:58.827Z,4.46
2022-08-08T08:55:29.726Z,4.34
2022-08-08T08:58:05.913Z,4.09
2022-08-08T09:01:02.913Z,4.48
2022-08-08T09:03:20.660Z,4.88
2022-08-08T09:05:57.906Z,5.34
2022-08-08T09:08:24.471Z,5.10
2022-08-08T09:10:51.262Z,5.70
2022-08-08T09:13:17.829Z,5.28
2022-08-08T09:16:04.202Z,5.16
2022-08-08T09:18:31.043Z,5.06
2022-08-08T09:22:05.499Z,4.88
2022-08-08T09:23:45.310Z,5.12
2022-08-08T09:26:14.542Z,4.94
2022-08-08T09:28:41.146Z,4.81
2022-08-08T09:31:12.860Z,5.11
2022-08-08T09:34:15.442Z,5.48
2022-08-08T09:36:26.254Z,5.43
2022-08-08T09:38:54.275Z,5.18
2022-08-08T09:41:22.496Z,5.40
2022-08-08T09:44:05.809Z,5.06
2022-08-08T09:46:36.293Z,5.16
2022-08-08T09:49:41.179Z,4.90
2022-08-08T09:52:07.672Z,5.38
2022-08-08T09:54:37.910Z,5.17
2022-08-08T09:57:04.904Z,5.51
2022-08-08T10:00:01.889Z,5.27
2022-08-08T10:02:25.236Z,5.40
2022-08-08T10:04:57.591Z,5.02
2022-08-08T10:07:27.863Z,5.48
2022-08-08T10:10:02.689Z,5.40
2022-08-08T10:12:37.549Z,5.12
2022-08-08T10:15:18.033Z,5.17
2022-08-08T10:18:05.714Z,5.36
2022-08-08T10:20:41.383Z,5.27
2022-08-08T10:23:38.018Z,5.16
2022-08-08T10:26:04.647Z,5.40
2022-08-08T10:28:53.675Z,5.15
2022-08-08T10:31:21.048Z,5.40
2022-08-08T10:34:20.261Z,5.02
2022-08-08T10:36:48.290Z,5.13
2022-08-08T10:39:14.905Z,5.25
2022-08-08T10:41:58.783Z,5.44
2022-08-08T10:44:30.636Z,5.36
2022-08-08T10:46:57.627Z,5.18
2022-08-08T10:50:00.215Z,4.99
2022-08-08T10:52:11.921Z,5.04
2022-08-08T10:54:40.830Z,5.27
2022-08-08T10:57:08.809Z,5.29
2022-08-08T10:59:39.694Z,4.78
2022-08-08T11:02:07.597Z,4.91
2022-08-08T11:04:39.169Z,5.31
2022-08-08T11:07:06.833Z,5.03
2022-08-08T11:09:33.918Z,4.81
2022-08-08T11:12:12.891Z,4.94
2022-08-08T11:14:40.720Z,4.93
2022-08-08T11:17:15.594Z,4.44
2022-08-08T11:19:42.465Z,5.04
2022-08-08T11:22:13.582Z,4.92
2022-08-08T11:24:40.415Z,4.94
2022-08-08T11:27:19.196Z,4.98
2022-08-08T11:29:58.112Z,4.90
2022-08-08T11:32:33.338Z,6.15
2022-08-08T11:35:24.482Z,4.52
2022-08-08T11:38:37.247Z,4.46
2022-08-08T11:40:36.203Z,4.17
2022-08-08T11:43:02.791Z,4.30
2022-08-08T11:45:30.141Z,4.09
2022-08-08T11:48:06.476Z,4.22
2022-08-08T11:50:36.445Z,4.21
2022-08-08T11:53:06.206Z,4.27
2022-08-08T11:55:33.215Z,4.08
2022-08-08T11:58:04.200Z,4.16
2022-08-08T12:00:35.561Z,3.61
2022-08-08T12:03:04.156Z,3.74
2022-08-08T12:05:30.653Z,3.57
2022-08-08T12:08:00.678Z,3.47
2022-08-08T12:10:28.450Z,3.47
2022-08-08T12:12:56.038Z,3.32
2022-08-08T12:15:22.558Z,3.18
2022-08-08T12:17:50.910Z,3.69
2022-08-08T12:20:17.657Z,3.69
2022-08-08T12:22:45.726Z,3.57
2022-08-08T12:25:12.528Z,3.61
2022-08-08T12:27:45.334Z,3.53
2022-08-08T12:30:15.869Z,3.91
2022-08-08T12:32:48.744Z,3.80
2022-08-08T12:35:18.065Z,3.54
2022-08-08T12:37:48.096Z,3.42
2022-08-08T12:40:29.188Z,3.23
2022-08-08T12:42:56.909Z,3.09
2022-08-08T12:45:58.582Z,3.62
2022-08-08T12:48:35.898Z,3.68
2022-08-08T12:50:58.394Z,3.68
2022-08-08T12:53:30.046Z,3.81
2022-08-08T12:56:08.835Z,3.63
2022-08-08T12:58:44.320Z,3.50
2022-08-08T13:01:11.675Z,3.09
2022-08-08T13:03:38.294Z,2.85
2022-08-08T13:06:13.723Z,3.02
2022-08-08T13:08:41.145Z,3.05
2022-08-08T13:11:20.227Z,3.03
2022-08-08T13:13:47.006Z,3.03
2022-08-08T13:16:15.707Z,3.16
2022-08-08T13:18:55.636Z,3.02
2022-08-08T13:21:25.350Z,2.85
2022-08-08T13:24:03.457Z,2.94
2022-08-08T13:26:33.654Z,2.81
2022-08-08T13:29:01.145Z,2.80
2022-08-08T13:31:27.677Z,2.73
2022-08-08T13:33:56.671Z,2.88
2022-08-08T13:36:26.265Z,2.75
2022-08-08T13:38:53.295Z,2.95
2022-08-08T13:41:19.870Z,2.73
2022-08-08T13:43:51.158Z,2.96
2022-08-08T13:46:27.334Z,2.77
2022-08-08T13:50:33.214Z,2.64
2022-08-08T13:51:48.675Z,2.92
2022-08-08T13:54:18.391Z,2.86
2022-08-08T13:57:00.152Z,3.12
2022-08-08T13:59:28.377Z,2.83
2022-08-08T14:02:02.771Z,2.57
2022-08-08T14:04:34.493Z,2.86
2022-08-08T14:07:20.349Z,3.03
2022-08-08T14:10:04.964Z,2.91
2022-08-08T14:12:34.283Z,2.94
2022-08-08T14:18:36.841Z,2.70
2022-08-08T14:20:56.578Z,2.69
2022-08-08T14:24:04.796Z,2.57
2022-08-08T14:26:11.780Z,2.68
2022-08-08T14:28:39.864Z,2.54
2022-08-08T14:31:07.658Z,2.80
2022-08-08T14:33:36.656Z,2.89
2022-08-08T14:36:03.836Z,2.80
2022-08-08T14:38:34.744Z,2.68
2022-08-08T14:41:18.643Z,2.67
2022-08-08T14:44:11.356Z,2.61
2022-08-08T14:46:39.078Z,2.71
2022-08-08T14:49:09.363Z,2.79
2022-08-08T14:51:53.086Z,2.94
2022-08-08T14:54:29.530Z,2.66
2022-08-08T14:56:57.146Z,2.79
2022-08-08T14:59:44.198Z,2.96
2022-08-08T15:02:15.343Z,2.75
2022-08-08T15:04:42.575Z,2.87
2022-08-08T15:07:24.074Z,2.85
2022-08-08T15:09:56.779Z,2.64
2022-08-08T15:12:27.578Z,2.69
2022-08-08T15:14:55.015Z,2.79
2022-08-08T15:17:22.259Z,2.97
2022-08-08T15:19:51.292Z,2.85
2022-08-08T15:22:23.707Z,2.67
2022-08-08T15:24:51.576Z,2.67
2022-08-08T15:28:04.914Z,2.71
2022-08-08T15:30:04.642Z,2.60
2022-08-08T15:32:35.041Z,2.56
2022-08-08T15:35:07.028Z,2.72
2022-08-08T15:37:33.915Z,2.74
2022-08-08T15:40:00.733Z,2.67
2022-08-08T15:42:31.885Z,2.75
2022-08-08T15:44:59.279Z,2.57
2022-08-08T15:47:26.220Z,2.74
2022-08-08T15:49:52.784Z,2.80
2022-08-08T15:52:20.783Z,2.86
2022-08-08T15:57:35.630Z,2.88
2022-08-08T16:00:27.014Z,2.56
2022-08-08T16:02:53.574Z,2.98
2022-08-08T16:05:23.402Z,2.91
2022-08-08T16:07:51.934Z,2.52
2022-08-08T16:13:03.838Z,2.69
2022-08-08T16:13:29.383Z,2.65
2022-08-08T16:15:57.489Z,2.91
2022-08-08T16:18:27.414Z,2.55
2022-08-08T16:20:53.970Z,2.81
2022-08-08T16:23:27.574Z,2.80
2022-08-08T16:25:58.182Z,2.52
2022-08-08T16:28:35.384Z,2.41
2022-08-08T16:31:07.869Z,2.61
2022-08-08T16:33:39.433Z,2.61
2022-08-08T16:36:08.811Z,2.48
2022-08-08T16:38:36.020Z,2.55
2022-08-08T16:41:07.641Z,2.60
2022-08-08T16:43:42.065Z,2.67
2022-08-08T16:46:37.434Z,2.75
2022-08-08T16:49:04.662Z,2.59
2022-08-08T16:55:04.701Z,2.29
2022-08-08T16:55:22.702Z,2.50
2022-08-08T16:57:27.913Z,2.54
2022-08-08T16:59:52.563Z,2.28
2022-08-08T17:02:31.897Z,2.38
2022-08-08T17:05:05.964Z,2.27
2022-08-08T17:07:32.532Z,2.08
2022-08-08T17:10:01.322Z,2.24
2022-08-08T17:12:28.734Z,2.48
2022-08-08T17:14:55.485Z,2.51
2022-08-08T17:17:41.342Z,2.73
2022-08-08T17:20:09.026Z,2.43
2022-08-08T17:22:39.300Z,2.44
2022-08-08T17:25:09.234Z,2.22
2022-08-08T17:27:46.170Z,2.23
2022-08-08T17:30:27.260Z,2.31
2022-08-08T17:34:35.054Z,2.00
2022-08-08T17:35:56.385Z,2.28
2022-08-08T17:38:30.934Z,2.18
2022-08-08T17:40:57.737Z,2.35
2022-08-08T17:43:24.672Z,2.28
2022-08-08T17:45:52.773Z,2.23
2022-08-08T17:48:29.323Z,2.40
2022-08-08T17:50:57.656Z,2.49
2022-08-08T17:53:42.693Z,2.49
2022-08-08T17:56:09.403Z,2.39
2022-08-08T17:58:35.983Z,2.72
2022-08-08T18:01:03.559Z,2.41
2022-08-08T18:03:31.034Z,2.38
2022-08-08T18:06:00.101Z,2.36
2022-08-08T18:08:37.640Z,2.34
2022-08-08T18:11:09.110Z,2.38
2022-08-08T18:13:41.904Z,2.27
2022-08-08T18:16:08.978Z,2.32
2022-08-08T18:18:42.394Z,2.30
2022-08-08T18:21:10.743Z,2.46
2022-08-08T18:23:55.722Z,2.52
2022-08-08T18:26:23.739Z,2.46
2022-08-08T18:28:55.522Z,2.46
2022-08-08T18:31:22.318Z,2.24
2022-08-08T18:34:11.618Z,2.41
2022-08-08T18:36:37.040Z,2.24
2022-08-08T18:39:03.909Z,2.62
2022-08-08T18:41:51.028Z,2.44
2022-08-08T18:44:18.038Z,2.22
2022-08-08T18:46:55.416Z,2.72
2022-08-08T18:49:24.491Z,2.37
2022-08-08T18:51:59.579Z,2.39
2022-08-08T18:54:30.850Z,2.30
2022-08-08T18:56:57.843Z,2.46
2022-08-08T18:59:24.446Z,2.30
2022-08-08T19:02:28.950Z,2.29
2022-08-08T19:04:42.287Z,2.51
2022-08-08T19:07:10.389Z,2.34
2022-08-08T19:09:48.996Z,2.26
2022-08-08T19:12:26.424Z,2.60
2022-08-08T19:14:53.794Z,2.54
2022-08-08T19:18:30.494Z,2.71
2022-08-08T19:20:07.486Z,2.68
2022-08-08T19:22:35.800Z,2.64
2022-08-08T19:25:30.497Z,2.78
2022-08-08T19:27:57.210Z,2.87
2022-08-08T19:30:26.841Z,2.67
2022-08-08T19:32:53.811Z,2.64
2022-08-08T19:35:25.378Z,2.44
2022-08-08T19:38:07.223Z,2.82
2022-08-08T19:40:37.672Z,2.68
2022-08-08T19:43:11.756Z,2.56
2022-08-08T19:45:58.203Z,2.63
2022-08-08T19:48:29.135Z,2.72
2022-08-08T19:50:59.317Z,2.61
2022-08-08T19:53:51.135Z,2.63
2022-08-08T19:56:14.148Z,2.72
2022-08-08T19:58:43.114Z,2.93
2022-08-08T20:01:22.767Z,2.60
2022-08-08T20:04:02.063Z,2.52
2022-08-08T20:06:29.727Z,2.53
2022-08-08T20:08:57.338Z,2.56
2022-08-08T20:11:24.415Z,2.72
2022-08-08T20:14:12.711Z,2.67
2022-08-08T20:16:40.804Z,2.69
2022-08-08T20:19:09.679Z,2.70
2022-08-08T20:21:37.936Z,2.51
2022-08-08T20:24:05.009Z,2.61
2022-08-08T20:26:33.941Z,2.49
2022-08-08T20:29:01.033Z,2.72
2022-08-08T20:32:02.755Z,2.65
2022-08-08T20:34:29.074Z,2.53
2022-08-08T20:36:57.420Z,2.70
2022-08-08T20:39:33.636Z,2.71
2022-08-08T20:42:06.367Z,2.92
2022-08-08T20:44:35.536Z,2.60
2022-08-08T20:47:04.189Z,2.77
2022-08-08T20:49:39.821Z,2.68
2022-08-08T20:52:07.214Z,2.91
2022-08-08T20:54:33.779Z,2.61
2022-08-08T20:57:05.873Z,2.56
2022-08-08T20:59:45.675Z,2.78
2022-08-08T21:02:19.644Z,2.61
2022-08-08T21:04:47.863Z,2.64
2022-08-08T21:07:17.007Z,2.54
2022-08-08T21:10:07.930Z,2.56
2022-08-08T21:12:39.779Z,2.65
2022-08-08T21:15:11.353Z,2.73
2022-08-08T21:17:45.196Z,2.81
2022-08-08T21:20:22.835Z,2.76
2022-08-08T21:23:00.935Z,2.89
2022-08-08T21:25:36.219Z,2.79
2022-08-08T21:28:09.586Z,2.84
2022-08-08T21:30:45.162Z,2.89
2022-08-08T21:33:16.745Z,2.74
2022-08-08T21:36:17.569Z,2.69
2022-08-08T21:38:33.235Z,2.90
2022-08-08T21:40:59.844Z,2.97
2022-08-08T21:43:30.902Z,2.80
2022-08-08T21:48:06.683Z,2.78
2022-08-08T21:48:49.331Z,2.78
2022-08-08T21:51:45.931Z,2.72
2022-08-08T21:54:32.855Z,3.05
2022-08-08T21:56:52.060Z,2.70
2022-08-08T21:59:21.024Z,3.02
2022-08-08T22:01:51.997Z,2.97
2022-08-08T22:04:18.923Z,2.85
2022-08-08T22:06:45.382Z,2.87
2022-08-08T22:09:12.271Z,2.96
2022-08-08T22:12:02.624Z,2.76
2022-08-08T22:14:28.931Z,2.99
2022-08-08T22:16:55.522Z,2.94
2022-08-08T22:19:23.604Z,3.08
2022-08-08T22:21:51.639Z,2.87
2022-08-08T22:24:23.959Z,3.00
2022-08-08T22:27:01.375Z,2.82
2022-08-08T22:30:02.467Z,2.86
2022-08-08T22:32:18.062Z,3.30
2022-08-08T22:34:50.826Z,3.08
2022-08-08T22:37:48.924Z,2.90
2022-08-08T22:40:05.387Z,2.70
2022-08-08T22:42:34.567Z,2.76
2022-08-08T22:45:02.357Z,3.09
2022-08-08T22:47:34.271Z,2.80
2022-08-08T22:50:04.959Z,2.74
2022-08-08T22:52:36.812Z,3.03
2022-08-08T22:55:11.982Z,2.85
2022-08-08T22:57:43.916Z,2.78
2022-08-08T23:00:16.439Z,2.93
2022-08-08T23:02:44.598Z,2.85
2022-08-08T23:05:16.869Z,2.94
2022-08-08T23:07:51.252Z,2.80
2022-08-08T23:10:26.837Z,2.75
2022-08-08T23:12:54.423Z,2.98
2022-08-08T23:16:38.103Z,2.87
2022-08-08T23:18:08.598Z,2.71
2022-08-08T23:20:38.764Z,2.91
2022-08-08T23:23:05.428Z,2.79
2022-08-08T23:25:37.434Z,2.90
2022-08-08T23:28:15.158Z,2.57
2022-08-08T23:30:41.959Z,3.02
2022-08-08T23:33:19.175Z,2.99
2022-08-08T23:36:06.522Z,2.66
2022-08-08T23:38:33.693Z,2.70
2022-08-08T23:41:00.240Z,2.97
2022-08-08T23:43:45.333Z,2.76
2022-08-08T23:49:01.121Z,2.76
2022-08-08T23:49:18.349Z,2.96
2022-08-08T23:52:05.270Z,2.78
2022-08-08T23:54:41.795Z,2.64
2022-08-08T23:57:27.578Z,2.83
